Pagina principală
METAR-TAF:

METAR-TAF

Aeroporturi :

Port Vila, Efate, Vanuatu

Latitudine: 17-42S, longitudine: 168-18E, elevație: 20 m

Observații meteo curente

Raportul a fost făcut în urmă cu 53 de minute, la 02:00 UTC
Vânt 12 kt de la Sud-est
Temperatură 28°C
Umiditate 74%
Presiune 1012 hPa
Vizibilitate de 10 km sau mai mult
Nori împrăștiați la o înălțime de 2000 picior
Nori fragmentați la o înălțime de 12000 picior

METAR: NVVV 020200Z 14012KT 9999 SCT020 BKN120 28/23 Q1012

Ora: 13:53 (02:53 UTC)

Prognoză

Raportul a fost făcut în urmă cu 4 ore și 30 de minute, la 22:23 UTC
Prognoză valabilă de la 02 ora 00 UTC la 02 ora 24 UTC
Vânt 9 kt de la Sud-est
Vizibilitate de 10 km sau mai mult
Nori împrăștiați la o înălțime de 2000 picior
Nori fragmentați la o înălțime de 12000 picior

TAF: NVVV 012223Z 0200/0224 13009KT 9999 SCT020 BKN120

Observații și prognoze meteo pentru peste 4.000 de aeroporturi (rapoarte METAR și TAF).

Stațiile disponibile sunt reprezentate pe hartă prin puncte galbene și roșii.

Țineți indicatorul mouse-ului pe punctul dorit pentru a vedea denumirea stației.

Apoi, faceți clic pentru a vedea observațiile și prognozele meteorologice.

Pentru a schimba harta: Pentru mărire, faceți clic pe butoanele verzi cu cruce neagră; pentru micșorare, pe butonul verde cu o liniuță; pentru hărți învecinate, pe săgețile verzi.


METAR-TAF: